Time;durP1;ratioP1;P1;durP2;ratioP2;P2;SDS_P1;SDS_P2;PMS_P1;PMS_P2;Temp;Humidity;BMP_temperature;BMP_pressure;BME280_temperature;BME280_humidity;BME280_pressure;Samples;Min_cycle;Max_cycle;Signal;HPM_P1;HPM_P2
2021/12/25 00:02:20;;;;;;;1.70;1.10;;;;;;;-2.24;78.96;98604.73;206801;1318;141260;-64
2021/12/25 00:07:23;;;;;;;2.00;1.80;;;;;;;-2.38;79.08;98622.93;207892;1319;140308;-69
2021/12/25 00:12:30;;;;;;;1.60;0.70;;;;;;;-2.52;78.84;98634.83;207117;1318;140180;-64
2021/12/25 00:17:34;;;;;;;1.40;0.60;;;;;;;-2.72;77.82;98650.64;206692;1318;142127;-64
2021/12/25 00:22:37;;;;;;;1.00;0.60;;;;;;;-2.98;77.30;98664.31;207711;1318;140431;-64
2021/12/25 00:27:57;;;;;;;3.50;0.40;;;;;;;-3.25;77.39;98675.67;207551;1318;140123;-67
2021/12/25 00:33:06;;;;;;;1.70;0.60;;;;;;;-3.40;77.11;98696.00;208240;1318;139729;-69
2021/12/25 00:38:10;;;;;;;1.20;0.90;;;;;;;-3.52;76.80;98715.79;208639;1319;140241;-65
2021/12/25 00:43:13;;;;;;;2.90;1.30;;;;;;;-3.69;76.71;98730.16;209508;1317;140004;-64
2021/12/25 00:48:16;;;;;;;0.70;0.70;;;;;;;-3.80;76.62;98749.40;209033;1318;139752;-67
2021/12/25 00:53:18;;;;;;;2.90;1.20;;;;;;;-3.84;76.38;98758.36;206922;1318;140202;-68
2021/12/25 00:58:21;;;;;;;1.00;1.00;;;;;;;-3.93;76.34;98760.23;206904;1319;139915;-69
2021/12/25 01:03:24;;;;;;;3.70;1.00;;;;;;;-4.05;76.16;98778.65;209568;1316;140231;-68
2021/12/25 01:08:27;;;;;;;5.70;1.70;;;;;;;-4.20;75.94;98793.80;207186;1318;139375;-69
2021/12/25 01:13:34;;;;;;;1.10;0.60;;;;;;;-4.27;76.01;98800.96;208102;1319;140860;-66
2021/12/25 01:35:39;;;;;;;2.50;1.00;;;;;;;-4.48;75.88;98851.38;206101;1326;141377;-68
2021/12/25 01:40:44;;;;;;;2.60;1.20;;;;;;;-4.48;75.90;98853.18;207359;1316;140648;-68
2021/12/25 01:51:09;;;;;;;9.10;3.30;;;;;;;-4.56;76.01;98871.55;206915;1317;140764;-67
2021/12/25 01:56:12;;;;;;;22.30;19.80;;;;;;;-4.61;75.85;98880.38;207139;1317;141140;-65
2021/12/25 02:01:18;;;;;;;3.40;1.80;;;;;;;-4.69;75.36;98888.84;206967;1318;140893;-64
2021/12/25 02:06:24;;;;;;;2.30;1.00;;;;;;;-4.77;75.51;98893.32;207416;1318;141676;-70
2021/12/25 02:11:27;;;;;;;2.40;1.50;;;;;;;-4.87;75.30;98899.55;207381;1318;141382;-65
2021/12/25 02:16:40;;;;;;;5.00;1.40;;;;;;;-4.99;75.35;98913.59;207561;1321;220433;-67
2021/12/25 02:21:49;;;;;;;1.20;1.10;;;;;;;-5.08;75.28;98921.98;208015;1317;140128;-65
2021/12/25 02:26:55;;;;;;;0.80;0.70;;;;;;;-5.19;75.31;98924.14;207717;1318;221231;-65
2021/12/25 02:32:02;;;;;;;4.30;1.50;;;;;;;-5.29;75.20;98931.94;207902;1316;140122;-66
2021/12/25 02:37:05;;;;;;;3.20;0.90;;;;;;;-5.32;75.36;98943.27;207621;1316;140756;-70
2021/12/25 02:42:08;;;;;;;1.20;1.00;;;;;;;-5.35;75.44;98953.14;207050;1318;139365;-65
2021/12/25 02:47:19;;;;;;;2.10;0.80;;;;;;;-5.40;75.54;98964.49;208539;1318;139401;-64
2021/12/25 02:52:23;;;;;;;1.60;0.70;;;;;;;-5.52;75.34;98965.52;209284;1316;152151;-68
2021/12/25 02:57:26;;;;;;;1.90;1.10;;;;;;;-5.65;75.32;98974.83;208429;1319;139450;-65
2021/12/25 03:02:28;;;;;;;2.00;0.90;;;;;;;-5.74;75.35;98990.39;209115;1316;140563;-66
2021/12/25 03:07:31;;;;;;;3.70;2.00;;;;;;;-5.76;75.24;99001.31;208305;1319;140003;-66
2021/12/25 03:13:05;;;;;;;5.50;2.10;;;;;;;-5.80;75.38;98999.59;208329;1319;158707;-66
2021/12/25 03:18:02;;;;;;;6.00;3.20;;;;;;;-5.83;75.53;99015.27;208532;1318;140396;-66
2021/12/25 03:23:09;;;;;;;8.20;2.30;;;;;;;-5.89;75.54;99020.00;206815;1318;141072;-67
2021/12/25 03:28:17;;;;;;;4.50;2.10;;;;;;;-5.95;75.81;99020.64;206866;1316;139322;-66
2021/12/25 03:33:23;;;;;;;2.40;1.60;;;;;;;-6.03;75.78;99023.89;207451;1318;139606;-66
2021/12/25 03:38:30;;;;;;;4.80;1.90;;;;;;;-6.13;75.92;99027.39;207509;1318;139285;-65
2021/12/25 03:43:38;;;;;;;2.00;1.10;;;;;;;-6.22;75.75;99041.07;207687;1318;140074;-66
2021/12/25 03:58:53;;;;;;;1.20;1.10;;;;;;;-6.37;75.67;99060.00;207034;1317;139916;-65
2021/12/25 04:04:45;;;;;;;3.80;1.40;;;;;;;-6.30;75.91;99064.06;207391;1318;139846;-63
2021/12/25 04:09:28;;;;;;;3.60;1.30;;;;;;;-6.20;75.92;99073.75;207238;1317;140025;-65
2021/12/25 04:14:31;;;;;;;4.40;1.20;;;;;;;-6.20;76.03;99070.98;208821;1319;139859;-66
2021/12/25 04:19:35;;;;;;;4.60;2.50;;;;;;;-6.22;76.02;99073.56;208517;1318;139463;-66
2021/12/25 04:24:41;;;;;;;6.60;2.30;;;;;;;-6.32;75.63;99078.33;207920;1319;139124;-66
2021/12/25 04:29:59;;;;;;;4.80;1.60;;;;;;;-6.46;75.51;99079.13;208053;1318;141873;-66
2021/12/25 05:02:10;;;;;;;3.10;2.90;;;;;;;-6.98;76.05;99131.96;209712;1316;141152;-65
2021/12/25 05:07:14;;;;;;;4.60;2.60;;;;;;;-7.00;76.38;99138.64;208704;1316;141525;-64
2021/12/25 05:12:16;;;;;;;5.90;2.20;;;;;;;-6.94;76.22;99139.02;208083;1318;140643;-67
2021/12/25 05:17:19;;;;;;;4.20;1.80;;;;;;;-6.90;76.03;99137.60;208238;1316;141516;-65
2021/12/25 05:22:23;;;;;;;4.40;1.80;;;;;;;-6.85;76.21;99138.02;207216;1318;140661;-65
2021/12/25 05:27:26;;;;;;;5.00;1.80;;;;;;;-6.81;76.22;99143.14;207934;1319;141434;-65
2021/12/25 05:32:30;;;;;;;9.10;2.60;;;;;;;-6.78;76.31;99154.70;207122;1318;140581;-64
2021/12/25 05:37:32;;;;;;;3.60;2.40;;;;;;;-6.81;76.36;99161.95;207581;1316;139863;-65
2021/12/25 05:42:35;;;;;;;7.00;4.10;;;;;;;-6.88;76.38;99172.11;207117;1317;140327;-64
2021/12/25 05:47:38;;;;;;;5.50;2.30;;;;;;;-6.98;76.60;99182.06;207292;1316;140301;-65
2021/12/25 05:52:42;;;;;;;5.50;2.70;;;;;;;-7.07;76.71;99185.76;206484;1317;845233;-67
2021/12/25 05:57:45;;;;;;;3.30;2.00;;;;;;;-7.19;76.48;99190.42;206796;1316;140258;-67
2021/12/25 06:02:50;;;;;;;6.20;4.00;;;;;;;-7.30;76.73;99195.05;207822;1317;140359;-64
2021/12/25 06:07:53;;;;;;;6.30;3.10;;;;;;;-7.31;76.85;99199.92;207245;1317;141817;-67
2021/12/25 06:12:59;;;;;;;12.10;3.50;;;;;;;-7.29;76.55;99200.69;208282;1317;141027;-66
2021/12/25 06:18:02;;;;;;;7.10;3.80;;;;;;;-7.26;76.65;99209.91;206637;1318;140457;-65
2021/12/25 06:23:05;;;;;;;7.20;3.70;;;;;;;-7.24;76.66;99219.05;207465;1316;141232;-64
2021/12/25 06:28:09;;;;;;;11.70;5.40;;;;;;;-7.23;76.67;99221.02;207348;1318;139383;-65
2021/12/25 06:33:15;;;;;;;10.40;3.90;;;;;;;-7.29;76.75;99227.11;208004;1317;141068;-65
2021/12/25 06:38:18;;;;;;;5.30;1.80;;;;;;;-7.45;76.50;99239.52;208356;1318;140530;-65
2021/12/25 06:43:20;;;;;;;9.00;3.90;;;;;;;-7.62;76.34;99243.06;206917;1317;139670;-65
2021/12/25 06:48:22;;;;;;;12.20;4.10;;;;;;;-7.75;76.60;99245.91;206410;1318;139428;-68
2021/12/25 06:53:25;;;;;;;11.30;4.60;;;;;;;-7.82;76.53;99252.54;209472;1318;140476;-66
2021/12/25 06:58:28;;;;;;;5.40;3.50;;;;;;;-7.87;76.20;99257.46;208199;1320;141151;-65
2021/12/25 07:03:30;;;;;;;7.00;3.80;;;;;;;-7.83;76.27;99256.92;208625;1318;141169;-67
2021/12/25 07:08:32;;;;;;;5.90;3.70;;;;;;;-7.71;76.41;99268.55;209031;1317;140471;-64
2021/12/25 07:13:34;;;;;;;11.90;3.60;;;;;;;-7.63;76.34;99277.42;209633;1316;141078;-65
2021/12/25 07:18:36;;;;;;;7.50;3.40;;;;;;;-7.57;76.43;99284.85;208387;1317;139715;-64
2021/12/25 07:23:38;;;;;;;9.20;4.70;;;;;;;-7.56;76.52;99286.17;207697;1318;140908;-64
2021/12/25 07:28:41;;;;;;;9.60;4.20;;;;;;;-7.55;76.71;99297.89;206533;1316;140804;-64
2021/12/25 07:33:44;;;;;;;4.50;2.40;;;;;;;-7.58;76.76;99304.36;206857;1318;142371;-64
2021/12/25 07:38:47;;;;;;;10.20;2.90;;;;;;;-7.60;77.05;99305.73;207745;1318;140943;-64
2021/12/25 07:43:49;;;;;;;6.80;3.80;;;;;;;-7.64;77.05;99308.10;208136;1317;141429;-64
2021/12/25 07:48:53;;;;;;;3.50;2.40;;;;;;;-7.57;77.05;99316.84;207580;1316;140831;-64
2021/12/25 07:53:56;;;;;;;6.80;4.10;;;;;;;-7.48;76.83;99319.69;208085;1317;141191;-65
2021/12/25 07:58:59;;;;;;;5.80;3.90;;;;;;;-7.36;76.85;99322.47;207421;1316;140280;-65
2021/12/25 08:04:04;;;;;;;7.90;5.00;;;;;;;-7.23;76.99;99324.79;206612;1318;139972;-64
2021/12/25 08:09:15;;;;;;;14.20;5.60;;;;;;;-7.13;77.17;99331.35;208685;1318;139588;-65
2021/12/25 08:14:20;;;;;;;9.90;3.70;;;;;;;-7.11;77.26;99333.27;208021;1317;141403;-64
2021/12/25 08:19:23;;;;;;;11.20;5.60;;;;;;;-7.07;77.29;99335.86;206788;1316;140740;-66
2021/12/25 08:24:26;;;;;;;8.00;5.40;;;;;;;-7.06;77.37;99343.88;207036;1318;141893;-65
2021/12/25 08:29:30;;;;;;;7.00;3.70;;;;;;;-7.05;77.43;99337.38;208119;1321;140416;-64
2021/12/25 08:34:34;;;;;;;64.90;52.10;;;;;;;-7.03;77.47;99333.77;207373;1319;140842;-63
2021/12/25 08:39:38;;;;;;;13.20;6.30;;;;;;;-7.00;77.53;99338.02;206701;1318;141243;-67
2021/12/25 08:45:04;;;;;;;6.70;4.10;;;;;;;-6.90;77.33;99341.40;207028;1317;141403;-70
2021/12/25 08:50:10;;;;;;;9.60;3.80;;;;;;;-6.77;77.23;99344.78;207968;1321;141525;-66
2021/12/25 08:55:12;;;;;;;7.20;4.00;;;;;;;-6.61;77.39;99351.32;207779;1318;141780;-67
2021/12/25 09:00:15;;;;;;;8.70;4.40;;;;;;;-6.42;77.43;99353.10;207055;1318;142380;-64
2021/12/25 09:05:18;;;;;;;8.90;4.90;;;;;;;-6.25;77.69;99356.55;208203;1319;141593;-65
2021/12/25 09:10:21;;;;;;;9.60;5.90;;;;;;;-6.10;77.65;99363.72;209280;1317;141216;-65
2021/12/25 09:15:24;;;;;;;10.60;5.10;;;;;;;-6.02;77.59;99371.96;207751;1317;140954;-64
2021/12/25 09:20:26;;;;;;;6.70;5.00;;;;;;;-5.90;77.65;99379.17;206636;1317;140441;-64
2021/12/25 09:25:33;;;;;;;7.00;3.00;;;;;;;-5.82;77.59;99381.52;207620;1317;139546;-64
2021/12/25 09:30:36;;;;;;;6.10;3.50;;;;;;;-5.77;77.53;99387.65;208804;1319;139393;-67
2021/12/25 09:35:53;;;;;;;;;;;;;;;;;;;;;
2021/12/25 09:40:59;;;;;;;9.90;4.90;;;;;;;-5.67;77.38;99396.47;207246;1319;140508;-69
2021/12/25 09:46:16;;;;;;;11.20;5.60;;;;;;;-5.61;77.23;99397.13;207319;1320;139534;-67
2021/12/25 09:51:20;;;;;;;10.40;7.80;;;;;;;-5.51;77.13;99398.77;208131;1317;141670;-65
2021/12/25 09:56:33;;;;;;;13.00;6.70;;;;;;;-5.39;77.01;99398.39;206659;1318;140811;-64
2021/12/25 10:01:48;;;;;;;8.60;5.30;;;;;;;-5.28;77.10;99397.35;208322;1316;142013;-67
2021/12/25 10:06:51;;;;;;;12.60;4.90;;;;;;;-5.21;76.95;99405.35;208000;1318;141856;-68
2021/12/25 10:12:12;;;;;;;13.40;7.40;;;;;;;-5.18;76.88;99404.98;206713;1316;141038;-65
2021/12/25 10:17:18;;;;;;;10.20;5.90;;;;;;;-5.12;76.92;99409.50;207619;1316;142129;-68
2021/12/25 10:22:25;;;;;;;15.90;7.90;;;;;;;-5.05;76.98;99406.64;207232;1316;141151;-66
2021/12/25 10:27:29;;;;;;;16.20;7.40;;;;;;;-4.95;76.78;99410.36;206611;1319;141175;-65
2021/12/25 10:32:39;;;;;;;14.30;8.00;;;;;;;-4.87;76.84;99409.27;207426;1318;140688;-64
2021/12/25 10:38:12;;;;;;;12.10;7.80;;;;;;;-4.80;76.69;99415.11;208096;1317;140391;-72
2021/12/25 10:43:24;;;;;;;12.10;5.90;;;;;;;-4.67;76.51;99413.61;207824;1318;140459;-69
2021/12/25 10:48:30;;;;;;;11.30;6.80;;;;;;;-4.57;76.39;99413.48;208881;1318;142556;-66
2021/12/25 10:53:41;;;;;;;14.10;7.40;;;;;;;-4.40;76.29;99413.96;207573;1318;142495;-67
2021/12/25 10:58:44;;;;;;;16.80;8.00;;;;;;;-4.27;76.23;99415.29;206888;1316;139642;-66
2021/12/25 11:03:46;;;;;;;9.90;6.80;;;;;;;-4.28;75.96;99410.70;209528;1316;139750;-66
2021/12/25 11:08:49;;;;;;;17.30;7.80;;;;;;;-4.27;75.93;99412.55;208604;1318;139958;-66
2021/12/25 11:13:57;;;;;;;13.80;6.90;;;;;;;-4.19;75.87;99410.63;209171;1317;142314;-66
2021/12/25 11:19:11;;;;;;;10.00;6.60;;;;;;;-4.03;75.82;99412.08;208500;1323;140481;-65
2021/12/25 11:24:18;;;;;;;13.70;8.70;;;;;;;-3.86;75.74;99407.55;208634;1317;142424;-66
2021/12/25 11:29:25;;;;;;;9.10;5.60;;;;;;;-3.67;75.39;99401.91;208239;1319;159851;-66
2021/12/25 11:34:29;;;;;;;9.20;5.80;;;;;;;-3.55;75.25;99401.05;207409;1319;140645;-66
2021/12/25 11:39:34;;;;;;;16.30;7.50;;;;;;;-3.46;75.03;99399.84;208478;1316;140596;-66
2021/12/25 11:44:48;;;;;;;15.10;8.20;;;;;;;-3.27;75.14;99384.63;208687;1317;141946;-66
2021/12/25 11:49:54;;;;;;;14.50;9.10;;;;;;;-3.08;75.01;99380.27;206917;1317;141980;-65
2021/12/25 11:55:28;;;;;;;9.80;4.50;;;;;;;-3.00;74.44;99384.41;208649;1317;140121;-66
2021/12/25 12:00:41;;;;;;;15.70;7.60;;;;;;;-3.00;74.26;99388.07;207661;1316;141267;-65
2021/12/25 12:05:48;;;;;;;18.20;8.70;;;;;;;-2.94;74.28;99396.72;207945;1316;139936;-65
2021/12/25 12:10:57;;;;;;;15.80;8.90;;;;;;;-2.86;74.45;99398.68;207765;1318;162766;-65
2021/12/25 12:16:04;;;;;;;19.30;11.10;;;;;;;-2.87;73.90;99402.36;207039;1318;141850;-66
2021/12/25 12:21:38;;;;;;;13.50;7.30;;;;;;;-2.87;74.21;99397.27;207639;1318;140572;-65
2021/12/25 12:26:44;;;;;;;14.50;7.80;;;;;;;-2.89;73.72;99399.25;206932;1317;139869;-66
2021/12/25 12:31:48;;;;;;;16.60;9.00;;;;;;;-2.88;73.62;99405.84;206821;1317;141756;-66
2021/12/25 12:36:51;;;;;;;22.40;10.90;;;;;;;-2.85;73.88;99403.52;207506;1316;142417;-66
2021/12/25 12:41:56;;;;;;;29.80;12.70;;;;;;;-2.85;73.64;99412.15;207143;1319;141958;-65
2021/12/25 12:47:05;;;;;;;24.00;12.90;;;;;;;-2.86;73.74;99417.69;207091;1318;140659;-65
2021/12/25 12:52:41;;;;;;;17.70;11.00;;;;;;;-2.91;73.57;99419.95;208009;1317;140416;-66
2021/12/25 12:57:45;;;;;;;23.80;12.20;;;;;;;-2.92;73.38;99422.70;207725;1320;141286;-66
2021/12/25 13:02:53;;;;;;;26.20;12.20;;;;;;;-2.92;73.17;99423.16;207720;1317;140913;-65
2021/12/25 13:08:02;;;;;;;25.80;12.60;;;;;;;-2.96;73.11;99424.09;208131;1322;139888;-66
2021/12/25 13:13:16;;;;;;;21.00;13.50;;;;;;;-3.07;72.98;99428.17;206962;1318;141210;-65
2021/12/25 13:18:46;;;;;;;22.60;11.90;;;;;;;-3.20;72.89;99428.43;207432;1317;139815;-65
2021/12/25 13:23:59;;;;;;;33.30;16.00;;;;;;;-3.41;72.80;99431.79;207090;1318;163009;-65
2021/12/25 13:29:31;;;;;;;31.60;15.10;;;;;;;-3.54;72.98;99438.83;208638;1317;141117;-65
2021/12/25 13:34:38;;;;;;;29.90;15.60;;;;;;;-3.69;72.95;99446.27;208338;1318;140282;-65
2021/12/25 13:39:41;;;;;;;24.70;13.00;;;;;;;-3.84;72.93;99448.03;208209;1316;140635;-67
2021/12/25 13:44:57;;;;;;;22.70;13.10;;;;;;;-3.90;72.93;99456.05;208855;1316;140487;-68
2021/12/25 13:50:04;;;;;;;23.10;13.30;;;;;;;-4.02;72.80;99453.83;209071;1318;139851;-67
2021/12/25 13:55:42;;;;;;;16.50;9.20;;;;;;;-4.19;73.01;99457.66;207347;1316;469110;-66
2021/12/25 14:00:50;;;;;;;26.30;12.60;;;;;;;-4.40;72.89;99466.81;208151;1314;140995;-65
2021/12/25 14:05:54;;;;;;;29.10;12.30;;;;;;;-4.51;72.95;99473.73;206437;1317;142464;-65
2021/12/25 14:10:59;;;;;;;28.80;13.70;;;;;;;-4.58;72.93;99481.52;206838;1318;139829;-65
2021/12/25 14:16:06;;;;;;;29.70;16.60;;;;;;;-4.72;73.13;99479.44;207325;1318;141615;-65
2021/12/25 14:21:18;;;;;;;38.70;17.00;;;;;;;-4.91;73.23;99488.32;207498;1316;140346;-65
2021/12/25 14:26:28;;;;;;;37.50;14.60;;;;;;;-5.06;73.44;99486.95;207025;1316;139481;-65
2021/12/25 14:31:48;;;;;;;33.90;16.40;;;;;;;-5.27;73.54;99495.45;207280;1316;140376;-65
2021/12/25 14:36:56;;;;;;;25.60;15.60;;;;;;;-5.42;73.83;99495.23;208157;1316;141788;-65
2021/12/25 14:42:08;;;;;;;26.00;13.10;;;;;;;-5.57;73.87;99494.17;207774;1317;140716;-65
2021/12/25 14:47:30;;;;;;;;;;;;;;;;;;;;;
2021/12/25 14:52:35;;;;;;;39.30;18.00;;;;;;;-5.93;73.78;99500.21;207683;1318;140939;-65
2021/12/25 14:57:37;;;;;;;45.60;22.80;;;;;;;-6.03;73.90;99507.00;207655;1318;141097;-66
2021/12/25 15:02:40;;;;;;;47.90;20.20;;;;;;;-6.12;73.96;99511.41;208371;1317;141148;-64
2021/12/25 15:07:43;;;;;;;32.80;16.30;;;;;;;-6.27;74.03;99508.93;208557;1316;139546;-65
2021/12/25 15:13:11;;;;;;;35.40;17.20;;;;;;;-6.41;74.02;99516.59;208748;1318;141412;-65
2021/12/25 15:18:32;;;;;;;20.80;12.10;;;;;;;-6.58;74.27;99522.87;206653;1317;161251;-65
2021/12/25 15:23:36;;;;;;;35.80;15.60;;;;;;;-6.80;74.28;99518.20;206383;1318;140125;-65
2021/12/25 15:29:21;;;;;;;37.90;16.10;;;;;;;-7.01;74.07;99512.83;208167;1318;140421;-66
2021/12/25 15:34:25;;;;;;;28.40;15.00;;;;;;;-7.11;74.37;99515.30;208177;1318;141335;-65
2021/12/25 15:39:32;;;;;;;34.70;14.80;;;;;;;-7.19;74.32;99517.95;209255;1318;140061;-65
2021/12/25 15:44:35;;;;;;;29.60;15.50;;;;;;;-7.32;74.43;99513.58;209395;1312;142515;-65
2021/12/25 15:49:40;;;;;;;27.60;14.10;;;;;;;-7.46;74.26;99519.54;208935;1319;141059;-65
2021/12/25 15:54:52;;;;;;;32.50;16.00;;;;;;;-7.58;74.63;99528.27;208916;1317;141864;-65
2021/12/25 16:00:00;;;;;;;40.00;14.60;;;;;;;-7.54;74.90;99534.65;208886;1316;141873;-65
2021/12/25 16:05:05;;;;;;;33.90;14.50;;;;;;;-7.47;74.98;99538.61;207571;1317;161834;-65
2021/12/25 16:10:12;;;;;;;34.10;18.20;;;;;;;-7.55;74.41;99541.48;206800;1318;141410;-65
2021/12/25 16:15:17;;;;;;;35.20;17.20;;;;;;;-7.64;74.30;99549.02;207300;1318;141442;-65
2021/12/25 16:20:23;;;;;;;42.40;17.20;;;;;;;-7.74;73.95;99550.88;208281;1318;141906;-65
2021/12/25 16:25:26;;;;;;;48.80;19.40;;;;;;;-7.90;74.04;99559.19;208087;1318;140663;-66
2021/12/25 16:30:36;;;;;;;71.80;27.70;;;;;;;-7.99;73.98;99570.11;208358;1317;140635;-65
2021/12/25 16:35:41;;;;;;;67.40;31.40;;;;;;;-8.14;73.54;99570.04;206611;1318;140834;-65
2021/12/25 16:40:56;;;;;;;71.90;34.20;;;;;;;-8.46;73.29;99570.90;207910;1318;141418;-65
2021/12/25 16:46:02;;;;;;;60.10;23.10;;;;;;;-8.76;73.55;99573.82;207450;1318;141035;-65
2021/12/25 16:51:06;;;;;;;62.60;25.70;;;;;;;-8.99;73.83;99574.60;207252;1316;140462;-67
2021/12/25 16:56:10;;;;;;;62.00;31.10;;;;;;;-9.17;74.09;99579.70;207411;1318;141629;-65
2021/12/25 17:01:14;;;;;;;65.50;27.10;;;;;;;-9.27;73.71;99585.48;207536;1313;142442;-65
2021/12/25 17:06:17;;;;;;;55.10;25.40;;;;;;;-9.34;74.07;99593.73;207607;1318;143599;-65
2021/12/25 17:11:21;;;;;;;61.60;26.10;;;;;;;-9.34;74.47;99596.98;208276;1318;142732;-65
2021/12/25 17:16:24;;;;;;;88.80;32.90;;;;;;;-9.32;74.61;99600.77;207310;1318;140320;-65
2021/12/25 17:21:28;;;;;;;83.10;31.10;;;;;;;-9.41;74.15;99602.34;208026;1319;141406;-66
2021/12/25 17:26:39;;;;;;;73.00;29.40;;;;;;;-9.52;73.78;99600.92;208575;1318;140350;-65
2021/12/25 17:31:43;;;;;;;123.20;44.30;;;;;;;-9.49;73.79;99603.80;207549;1316;141141;-65
2021/12/25 17:36:50;;;;;;;81.10;33.10;;;;;;;-9.57;73.70;99607.59;207884;1318;142112;-64
2021/12/25 17:41:58;;;;;;;76.40;32.30;;;;;;;-9.71;73.80;99614.11;209044;1318;141651;-65
2021/12/25 17:47:05;;;;;;;70.20;29.10;;;;;;;-9.75;73.99;99615.75;208453;1316;140888;-65
2021/12/25 17:52:14;;;;;;;58.50;26.40;;;;;;;-9.76;74.01;99626.20;208070;1317;141137;-65
2021/12/25 17:57:18;;;;;;;54.10;24.90;;;;;;;-9.80;74.21;99622.85;207828;1316;140471;-65
2021/12/25 18:02:27;;;;;;;69.10;27.70;;;;;;;-9.78;74.39;99627.05;208095;1318;140857;-65
2021/12/25 18:07:30;;;;;;;80.40;31.30;;;;;;;-9.74;74.01;99636.17;207273;1316;140923;-65
2021/12/25 18:12:38;;;;;;;75.60;32.00;;;;;;;-9.79;73.89;99635.85;206949;1318;140704;-68
2021/12/25 18:17:43;;;;;;;71.50;28.10;;;;;;;-9.77;74.24;99639.50;206648;1317;140360;-67
2021/12/25 18:22:46;;;;;;;68.90;34.80;;;;;;;-9.82;73.91;99646.02;207514;1318;141116;-67
2021/12/25 18:27:55;;;;;;;85.20;31.60;;;;;;;-9.99;73.64;99657.37;207772;1317;140792;-65
2021/12/25 18:33:00;;;;;;;92.90;37.30;;;;;;;-10.20;73.66;99657.80;207218;1317;141082;-67
2021/12/25 18:38:05;;;;;;;91.80;35.20;;;;;;;-10.32;73.84;99657.94;207276;1318;141156;-67
2021/12/25 18:43:07;;;;;;;74.30;29.80;;;;;;;-10.38;73.98;99651.89;206580;1318;141030;-67
2021/12/25 18:48:14;;;;;;;62.50;27.80;;;;;;;-10.39;74.30;99653.52;207777;1314;141288;-67
2021/12/25 18:53:20;;;;;;;73.80;28.70;;;;;;;-10.38;74.58;99655.59;206700;1318;140817;-67
2021/12/25 18:58:27;;;;;;;64.60;30.00;;;;;;;-10.30;74.30;99660.39;206907;1318;140284;-67
2021/12/25 19:03:30;;;;;;;57.80;28.30;;;;;;;-10.28;74.14;99660.41;206985;1318;140658;-66
2021/12/25 19:08:34;;;;;;;82.90;34.40;;;;;;;-10.33;74.17;99656.98;207342;1313;141720;-67
2021/12/25 19:13:42;;;;;;;95.60;37.50;;;;;;;-10.41;73.85;99658.60;207617;1318;140319;-67
2021/12/25 19:18:45;;;;;;;83.80;34.50;;;;;;;-10.40;74.40;99658.05;208410;1318;141983;-65
2021/12/25 19:23:48;;;;;;;87.40;35.50;;;;;;;-10.41;74.44;99655.14;208813;1317;141875;-65
2021/12/25 19:28:51;;;;;;;77.00;32.40;;;;;;;-10.41;74.38;99653.30;208067;1316;141898;-65
2021/12/25 19:33:53;;;;;;;78.50;34.50;;;;;;;-10.37;74.15;99649.86;207256;1316;141792;-66
2021/12/25 19:39:07;;;;;;;84.00;33.20;;;;;;;-10.45;73.52;99641.88;207881;1316;141981;-68
2021/12/25 19:44:10;;;;;;;68.90;25.90;;;;;;;-10.64;73.81;99635.25;207781;1317;143043;-68
2021/12/25 19:49:14;;;;;;;81.40;31.40;;;;;;;-10.63;74.49;99641.84;208223;1317;141243;-65
2021/12/25 19:54:17;;;;;;;74.10;30.40;;;;;;;-10.52;75.28;99654.73;209196;1315;141312;-65
2021/12/25 19:59:21;;;;;;;73.20;32.90;;;;;;;-10.44;74.49;99656.08;208440;1315;142770;-65
2021/12/25 20:04:24;;;;;;;83.30;35.00;;;;;;;-10.39;74.41;99661.68;207644;1317;142291;-68
2021/12/25 20:09:27;;;;;;;67.80;28.20;;;;;;;-10.36;74.50;99668.52;207754;1318;141380;-68
2021/12/25 20:14:30;;;;;;;85.90;31.10;;;;;;;-10.37;74.32;99664.79;209065;1318;142537;-66
2021/12/25 20:19:34;;;;;;;92.60;35.50;;;;;;;-10.50;73.77;99673.11;207678;1316;140947;-64
2021/12/25 20:24:45;;;;;;;78.50;33.10;;;;;;;-10.58;74.02;99668.10;206754;1315;142154;-66
2021/12/25 20:29:48;;;;;;;83.50;32.20;;;;;;;-10.60;74.05;99669.83;207016;1316;150632;-67
2021/12/25 20:34:54;;;;;;;82.50;36.30;;;;;;;-10.57;74.21;99667.73;206810;1316;141285;-67
2021/12/25 20:40:12;;;;;;;96.20;36.20;;;;;;;-10.59;74.19;99671.85;207064;1317;140730;-67
2021/12/25 20:51:00;;;;;;;102.30;34.60;;;;;;;-10.75;74.54;99680.83;205510;1324;153142;-67
2021/12/25 20:56:17;;;;;;;92.90;34.90;;;;;;;-10.76;74.54;99687.09;206573;1317;141537;-67
2021/12/25 21:01:20;;;;;;;89.70;32.40;;;;;;;-10.70;74.86;99685.41;207500;1318;141908;-66
2021/12/25 21:06:22;;;;;;;76.90;29.40;;;;;;;-10.62;74.97;99672.38;207143;1317;141715;-66
2021/12/25 21:11:25;;;;;;;78.70;29.50;;;;;;;-10.50;75.26;99672.13;207936;1316;141542;-67
2021/12/25 21:16:31;;;;;;;86.60;33.60;;;;;;;-10.36;75.41;99663.53;206818;1316;143835;-66
2021/12/25 21:21:37;;;;;;;75.00;31.80;;;;;;;-10.22;75.58;99665.36;207718;1316;140491;-66
2021/12/25 21:26:41;;;;;;;64.40;31.30;;;;;;;-10.18;75.61;99664.06;207416;1316;140746;-65
2021/12/25 21:31:46;;;;;;;85.70;30.10;;;;;;;-10.19;75.56;99676.50;206824;1316;139907;-68
2021/12/25 21:36:48;;;;;;;59.40;27.60;;;;;;;-10.28;75.55;99678.11;207899;1316;141664;-67
2021/12/25 21:41:51;;;;;;;55.30;24.10;;;;;;;-10.31;75.46;99684.86;209184;1316;141089;-65
2021/12/25 21:46:54;;;;;;;59.00;26.90;;;;;;;-10.37;75.20;99693.69;208007;1316;140701;-68
2021/12/25 21:51:57;;;;;;;74.90;27.70;;;;;;;-10.39;75.09;99690.73;208703;1316;470536;-66
2021/12/25 21:56:59;;;;;;;63.70;26.90;;;;;;;-10.34;75.61;99696.88;208836;1316;140763;-66
2021/12/25 22:02:09;;;;;;;55.30;26.20;;;;;;;-10.29;75.28;99696.60;206969;1315;141062;-66
2021/12/25 22:07:26;;;;;;;45.70;22.20;;;;;;;-10.21;75.16;99693.61;208531;1317;141184;-65
2021/12/25 22:12:33;;;;;;;68.60;24.70;;;;;;;-10.09;75.70;99688.81;208783;1320;161621;-67
2021/12/25 22:17:38;;;;;;;54.20;26.30;;;;;;;-9.99;75.78;99690.72;207834;1316;140367;-65
2021/12/25 22:22:43;;;;;;;57.20;27.50;;;;;;;-9.96;75.94;99685.30;207256;1318;139573;-70
2021/12/25 22:27:49;;;;;;;42.60;18.10;;;;;;;-9.96;76.30;99681.70;207155;1317;139849;-68
2021/12/25 22:32:53;;;;;;;55.20;21.20;;;;;;;-10.03;75.90;99681.31;208925;1318;140652;-68
2021/12/25 22:38:00;;;;;;;74.70;31.70;;;;;;;-10.14;75.47;99686.81;208001;1318;141065;-69
2021/12/25 22:43:09;;;;;;;76.90;31.80;;;;;;;-10.34;75.04;99689.41;207313;1318;140611;-68
2021/12/25 22:48:13;;;;;;;69.20;28.90;;;;;;;-10.57;75.07;99690.60;208507;1317;140568;-69
2021/12/25 22:53:17;;;;;;;69.60;22.80;;;;;;;-10.68;75.14;99688.42;208088;1313;141071;-68
2021/12/25 22:58:22;;;;;;;77.80;31.10;;;;;;;-10.70;75.01;99688.86;207557;1317;140968;-66
2021/12/25 23:03:29;;;;;;;86.60;29.80;;;;;;;-10.60;75.38;99690.61;207570;1318;140896;-66
2021/12/25 23:08:39;;;;;;;56.50;26.10;;;;;;;-10.55;75.32;99693.02;206970;1318;142630;-66
2021/12/25 23:13:42;;;;;;;53.00;24.60;;;;;;;-10.65;74.85;99686.62;206796;1316;140644;-68
2021/12/25 23:19:07;;;;;;;82.30;28.80;;;;;;;-10.80;74.54;99686.48;208054;1317;141546;-68
2021/12/25 23:24:12;;;;;;;65.40;31.40;;;;;;;-10.99;74.51;99678.97;207509;1316;140705;-70
2021/12/25 23:29:24;;;;;;;58.00;25.00;;;;;;;-11.06;75.01;99678.89;207519;1316;140433;-65
2021/12/25 23:34:30;;;;;;;70.70;30.30;;;;;;;-11.00;75.37;99680.91;208066;1316;140712;-65
2021/12/25 23:39:33;;;;;;;70.50;26.20;;;;;;;-10.88;75.84;99690.08;208548;1313;141406;-69
2021/12/25 23:44:36;;;;;;;71.00;27.60;;;;;;;-10.81;75.62;99688.77;207208;1315;211255;-67
2021/12/25 23:49:42;;;;;;;58.30;25.70;;;;;;;-10.89;75.02;99693.52;206934;1315;140600;-70
2021/12/25 23:54:48;;;;;;;57.70;28.90;;;;;;;-10.94;75.43;99699.72;207636;1315;140253;-70
2021/12/25 23:59:51;;;;;;;58.80;29.40;;;;;;;-10.95;75.24;99694.27;206979;1315;140560;-71
